Annabella, Utah
Current Conditions -  °F | °C
As of 4:55 PM on Friday 31 Oct 2014 (Local Time) from KDTA Reporting Station
Clear Clear  
Wind Chill: 74°   Ceiling: Unl
Heat Index: 74°   Visibility: 10mi
Dew Point: 27°   Wind: 17mph
Humidity: 17%   Direction: 220°SW
Pressure: 29.87"   Gusts: 29mph
Location:  38.71°N, 112.06°W
Report Text: KDTA 312255Z AUTO 22015G25KT 10SM CLR 24/M03 A2987 RMK AO1 T02361030
Loading
Personal Weather Stations






























Interactive Weather Map
Tropical Storm Tracking
New forecast layout! Learn more

10-Day Weather Forecast

Advertisements
Track Severe Weather on mobile